Time;durP1;ratioP1;P1;durP2;ratioP2;P2;SDS_P1;SDS_P2;PMS_P1;PMS_P2;Temp;Humidity;BMP_temperature;BMP_pressure;BME280_temperature;BME280_humidity;BME280_pressure;Samples;Min_cycle;Max_cycle;Signal;HPM_P1;HPM_P2
2022/05/03 00:02:45;;;;;;;13.33;10.10;;;11.40;99.90;;;;;;5067866;28;20797;-72
2022/05/03 00:05:38;;;;;;;17.27;9.87;;;11.50;99.90;;;;;;5063818;28;20466;-71
2022/05/03 00:08:32;;;;;;;12.17;9.20;;;11.50;99.90;;;;;;5062916;28;20524;-72
2022/05/03 00:11:29;;;;;;;12.40;9.73;;;11.50;99.90;;;;;;5069144;28;20447;-72
2022/05/03 00:14:22;;;;;;;11.57;10.20;;;11.50;99.90;;;;;;5069047;28;20480;-72
2022/05/03 00:17:08;;;;;;;13.70;8.90;;;11.60;99.90;;;;;;5069109;28;20425;-72
2022/05/03 00:19:55;;;;;;;12.00;10.80;;;11.70;99.90;;;;;;5069346;28;20845;-72
2022/05/03 00:22:41;;;;;;;9.90;8.90;;;11.70;99.90;;;;;;5070959;28;20489;-72
2022/05/03 00:25:28;;;;;;;11.30;10.00;;;11.80;99.90;;;;;;5070692;28;20464;-72
2022/05/03 00:28:14;;;;;;;10.10;9.10;;;11.80;99.90;;;;;;5065508;28;20431;-72
2022/05/03 00:31:02;;;;;;;10.43;9.33;;;11.90;99.90;;;;;;5067461;28;20442;-71
2022/05/03 00:33:48;;;;;;;11.90;9.80;;;11.90;99.90;;;;;;5069834;28;20516;-72
2022/05/03 00:36:34;;;;;;;10.73;9.20;;;11.90;99.90;;;;;;5069080;28;20405;-71
2022/05/03 00:39:19;;;;;;;11.13;9.20;;;11.90;99.90;;;;;;5067866;28;20511;-72
2022/05/03 00:42:13;;;;;;;13.40;9.73;;;11.80;99.90;;;;;;5070583;28;20774;-72
2022/05/03 00:45:04;;;;;;;11.13;9.73;;;11.90;99.90;;;;;;5073200;28;20476;-71
2022/05/03 00:47:54;;;;;;;10.10;8.93;;;11.80;99.90;;;;;;5069662;28;20436;-71
2022/05/03 00:50:43;;;;;;;14.20;10.43;;;11.70;99.90;;;;;;5070430;28;20560;-71
2022/05/03 00:53:34;;;;;;;10.83;9.67;;;11.80;99.90;;;;;;5074255;28;20453;-71
2022/05/03 00:56:44;;;;;;;13.23;10.93;;;11.80;99.90;;;;;;5072833;28;20426;-71
2022/05/03 00:59:44;;;;;;;11.40;10.17;;;11.80;99.90;;;;;;5072094;28;20424;-72
2022/05/03 01:02:54;;;;;;;13.00;11.40;;;11.80;99.90;;;;;;5069826;28;20520;-71
2022/05/03 01:05:49;;;;;;;11.97;10.73;;;11.70;99.90;;;;;;5068628;28;20410;-72
2022/05/03 01:08:42;;;;;;;11.43;10.30;;;11.80;99.90;;;;;;5068413;28;20400;-72
2022/05/03 01:11:35;;;;;;;13.47;11.40;;;11.70;99.90;;;;;;5074219;28;20426;-71
2022/05/03 01:14:36;;;;;;;12.37;10.80;;;11.70;99.90;;;;;;5072420;28;20463;-72
2022/05/03 01:17:26;;;;;;;19.33;12.80;;;11.70;99.90;;;;;;5069335;28;20462;-72
2022/05/03 01:20:15;;;;;;;17.87;12.57;;;11.60;99.90;;;;;;5074284;28;20404;-72
2022/05/03 01:23:37;;;;;;;12.47;11.17;;;11.60;99.90;;;;;;5073869;28;20431;-72
2022/05/03 01:27:02;;;;;;;11.80;10.60;;;11.50;99.90;;;;;;5071876;28;20562;-72
2022/05/03 01:29:51;;;;;;;17.33;12.10;;;11.60;99.90;;;;;;5070072;28;20814;-72
2022/05/03 01:32:39;;;;;;;14.37;12.77;;;11.70;99.90;;;;;;5067731;28;20426;-71
2022/05/03 01:35:25;;;;;;;12.13;10.90;;;11.80;99.90;;;;;;5073027;28;20800;-71
2022/05/03 01:38:20;;;;;;;17.50;10.83;;;11.90;99.90;;;;;;5070580;28;20486;-71
2022/05/03 01:41:20;;;;;;;11.73;10.53;;;11.90;99.90;;;;;;5070044;28;20430;-71
2022/05/03 01:44:10;;;;;;;10.47;9.37;;;12.00;99.90;;;;;;5069528;28;20461;-71
2022/05/03 01:47:08;;;;;;;11.50;10.37;;;12.00;99.90;;;;;;5070348;28;20424;-71
2022/05/03 01:50:18;;;;;;;10.80;9.70;;;12.00;99.90;;;;;;5067965;28;20445;-72
2022/05/03 01:53:19;;;;;;;13.83;10.63;;;12.00;99.90;;;;;;5073025;28;20434;-71
2022/05/03 01:56:26;;;;;;;12.47;11.17;;;12.00;99.90;;;;;;5070154;28;20447;-71
2022/05/03 01:59:30;;;;;;;9.90;8.90;;;12.00;99.90;;;;;;5069551;28;20426;-71
2022/05/03 02:02:26;;;;;;;12.93;9.47;;;11.90;99.90;;;;;;5071168;28;20404;-71
2022/05/03 02:05:26;;;;;;;11.17;10.17;;;11.70;99.90;;;;;;5069499;28;20535;-71
2022/05/03 02:08:19;;;;;;;10.10;8.87;;;11.60;99.90;;;;;;5068616;28;20411;-72
2022/05/03 02:11:18;;;;;;;10.50;9.17;;;11.50;99.90;;;;;;5072949;28;20437;-72
2022/05/03 02:17:21;;;;;;;13.23;10.20;;;11.40;99.90;;;;;;5070970;28;20470;-72
2022/05/03 02:20:29;;;;;;;10.70;9.27;;;11.40;99.90;;;;;;5072947;28;20422;-72
2022/05/03 02:23:21;;;;;;;10.27;9.27;;;11.30;99.90;;;;;;5064361;28;20966;-71
2022/05/03 02:26:31;;;;;;;10.90;9.50;;;11.30;99.90;;;;;;5055522;28;20422;-72
2022/05/03 02:29:19;;;;;;;10.40;9.33;;;11.20;99.90;;;;;;5065897;28;20986;-72
2022/05/03 02:32:08;;;;;;;12.23;11.00;;;11.00;99.90;;;;;;5062445;28;20444;-71
2022/05/03 02:35:01;;;;;;;13.27;11.07;;;10.90;99.90;;;;;;5072606;28;20440;-72
2022/05/03 02:37:49;;;;;;;13.00;11.20;;;10.90;99.90;;;;;;5063928;28;20530;-71
2022/05/03 02:40:44;;;;;;;12.03;10.80;;;10.80;99.90;;;;;;5052755;28;20402;-71
2022/05/03 02:43:32;;;;;;;11.27;10.07;;;10.80;99.90;;;;;;5052838;28;20417;-71
2022/05/03 02:46:38;;;;;;;11.20;10.10;;;10.80;99.90;;;;;;5057732;28;20963;-71
2022/05/03 02:49:39;;;;;;;11.10;10.00;;;10.80;99.90;;;;;;5053145;28;20452;-71
2022/05/03 02:52:32;;;;;;;11.47;10.27;;;10.70;99.90;;;;;;5052396;28;20951;-71
2022/05/03 02:55:22;;;;;;;14.83;11.63;;;10.70;99.90;;;;;;5055152;28;20449;-71
2022/05/03 02:58:15;;;;;;;12.43;11.07;;;10.60;99.90;;;;;;5068844;28;20937;-71
2022/05/03 03:04:38;;;;;;;13.20;10.80;;;10.40;99.90;;;;;;4970769;28;20526;-71
2022/05/03 03:07:26;;;;;;;13.27;10.90;;;10.40;99.90;;;;;;4973954;28;20475;-71
2022/05/03 03:10:20;;;;;;;10.97;9.83;;;10.40;99.90;;;;;;5055002;28;20494;-73
2022/05/03 03:13:15;;;;;;;13.80;10.47;;;10.40;99.90;;;;;;5072341;28;20424;-71
2022/05/03 03:16:01;;;;;;;11.30;10.07;;;10.50;99.90;;;;;;5062743;28;20959;-71
2022/05/03 03:18:48;;;;;;;12.00;10.30;;;10.50;99.90;;;;;;5052406;28;20402;-70
2022/05/03 03:21:38;;;;;;;12.47;10.90;;;10.50;99.90;;;;;;5051730;28;20438;-71
2022/05/03 03:24:26;;;;;;;12.90;10.70;;;10.40;99.90;;;;;;5059659;28;20563;-71
2022/05/03 03:27:12;;;;;;;12.57;10.53;;;10.50;99.90;;;;;;5069426;28;20465;-71
2022/05/03 03:30:01;;;;;;;15.20;11.33;;;10.70;99.90;;;;;;5069744;28;20479;-71
2022/05/03 03:32:49;;;;;;;12.00;9.83;;;10.80;99.90;;;;;;5051515;28;21048;-71
2022/05/03 03:35:37;;;;;;;11.63;10.43;;;10.90;99.90;;;;;;5054083;28;20801;-71
2022/05/03 03:38:31;;;;;;;13.90;9.27;;;10.80;99.90;;;;;;5051364;28;20416;-71
2022/05/03 03:41:17;;;;;;;10.60;9.07;;;10.80;99.90;;;;;;5060585;28;20432;-71
2022/05/03 03:44:05;;;;;;;12.43;10.33;;;10.70;99.90;;;;;;5071147;28;20445;-71
2022/05/03 03:46:53;;;;;;;12.63;10.40;;;10.60;99.90;;;;;;5064124;28;20412;-71
2022/05/03 03:49:39;;;;;;;15.50;10.63;;;10.60;99.90;;;;;;5051705;28;20386;-71
2022/05/03 03:52:26;;;;;;;14.03;9.63;;;10.70;99.90;;;;;;5051718;28;20795;-71
2022/05/03 03:55:13;;;;;;;11.80;9.40;;;10.80;99.90;;;;;;5062770;28;20989;-71
2022/05/03 03:58:00;;;;;;;15.83;11.17;;;10.90;99.90;;;;;;5068792;28;20397;-71
2022/05/03 04:00:47;;;;;;;12.20;10.27;;;10.90;99.90;;;;;;5064836;28;20425;-71
2022/05/03 04:03:35;;;;;;;12.13;10.93;;;10.90;99.90;;;;;;5051136;28;20455;-71
2022/05/03 04:06:21;;;;;;;12.00;10.40;;;10.80;99.90;;;;;;5065136;28;20421;-71
2022/05/03 04:09:07;;;;;;;10.67;9.67;;;10.80;99.90;;;;;;5071217;28;20402;-71
2022/05/03 04:11:53;;;;;;;13.53;9.37;;;10.70;99.90;;;;;;5071474;28;20400;-71
2022/05/03 04:14:38;;;;;;;15.67;10.60;;;10.70;99.90;;;;;;5068244;28;21182;-71
2022/05/03 04:17:24;;;;;;;15.73;11.00;;;10.80;99.90;;;;;;5050708;28;20405;-71
2022/05/03 04:20:13;;;;;;;12.63;10.40;;;10.90;99.90;;;;;;5051656;28;20462;-71
2022/05/03 04:22:58;;;;;;;11.83;10.53;;;11.00;99.90;;;;;;5051191;28;20409;-71
2022/05/03 04:25:44;;;;;;;15.10;11.17;;;11.10;99.90;;;;;;5057896;28;20425;-71
2022/05/03 04:28:30;;;;;;;11.03;9.83;;;11.20;99.90;;;;;;5056118;28;20560;-74
2022/05/03 04:31:15;;;;;;;12.87;10.07;;;11.30;99.90;;;;;;5061398;28;20426;-71
2022/05/03 04:34:03;;;;;;;10.30;9.13;;;11.40;99.90;;;;;;5069790;28;20491;-71
2022/05/03 04:36:50;;;;;;;13.37;10.13;;;11.40;99.90;;;;;;5069423;28;21003;-71
2022/05/03 04:39:36;;;;;;;11.30;9.87;;;11.50;99.90;;;;;;5071240;28;20401;-71
2022/05/03 04:42:21;;;;;;;12.00;10.30;;;11.50;99.90;;;;;;5070919;28;20994;-71
2022/05/03 04:45:08;;;;;;;11.53;10.40;;;11.50;99.90;;;;;;5065862;28;20507;-71
2022/05/03 04:47:53;;;;;;;12.70;10.00;;;11.60;99.90;;;;;;5063541;28;20480;-71
2022/05/03 04:50:41;;;;;;;12.87;10.80;;;11.70;99.90;;;;;;5069243;28;20492;-71
2022/05/03 04:53:28;;;;;;;12.30;11.07;;;11.70;99.90;;;;;;5070797;28;20465;-71
2022/05/03 04:56:18;;;;;;;11.60;10.50;;;11.80;99.90;;;;;;5063796;28;20531;-71
2022/05/03 04:59:04;;;;;;;13.23;10.47;;;11.80;99.90;;;;;;5062140;28;20396;-71
2022/05/03 05:01:50;;;;;;;14.00;11.17;;;11.70;99.90;;;;;;5054820;28;20418;-71
2022/05/03 05:04:36;;;;;;;28.10;10.70;;;11.80;99.90;;;;;;5053114;28;20789;-71
2022/05/03 05:07:21;;;;;;;13.40;11.20;;;11.90;99.90;;;;;;5068378;28;20462;-71
2022/05/03 05:10:26;;;;;;;11.10;9.80;;;11.90;99.90;;;;;;5070635;28;20404;-71
2022/05/03 05:13:12;;;;;;;11.37;10.00;;;11.90;99.90;;;;;;5070710;28;20949;-72
2022/05/03 05:15:58;;;;;;;10.17;9.13;;;11.80;99.90;;;;;;5055520;28;20479;-72
2022/05/03 05:18:43;;;;;;;13.73;12.27;;;11.90;99.90;;;;;;5050399;28;20529;-72
2022/05/03 05:21:28;;;;;;;14.07;12.13;;;11.90;99.90;;;;;;5070311;28;20499;-73
2022/05/03 05:24:14;;;;;;;15.20;12.07;;;11.80;99.90;;;;;;5065936;28;20546;-72
2022/05/03 05:27:01;;;;;;;14.27;12.87;;;11.80;99.90;;;;;;5050798;28;20400;-72
2022/05/03 05:29:47;;;;;;;16.57;14.97;;;12.00;99.90;;;;;;5069940;28;20403;-72
2022/05/03 05:32:32;;;;;;;20.40;18.43;;;12.10;99.90;;;;;;5053273;28;20753;-72
2022/05/03 05:35:19;;;;;;;17.50;15.20;;;12.10;99.90;;;;;;5066372;28;20452;-72
2022/05/03 05:38:05;;;;;;;23.67;17.27;;;12.20;99.90;;;;;;5074447;28;20412;-72
2022/05/03 05:40:52;;;;;;;19.20;17.20;;;12.20;99.90;;;;;;5073981;28;20929;-72
2022/05/03 05:43:39;;;;;;;22.97;17.20;;;12.20;99.90;;;;;;5072996;28;20518;-72
2022/05/03 05:46:24;;;;;;;16.67;13.90;;;12.30;99.90;;;;;;5053583;28;20476;-72
2022/05/03 05:49:10;;;;;;;15.30;13.70;;;12.40;99.90;;;;;;5061325;28;20878;-72
2022/05/03 05:53:31;;;;;;;15.57;14.03;;;12.40;99.90;;;;;;5073962;28;20446;-72
2022/05/03 05:55:00;;;;;;;18.90;16.90;;;12.40;99.90;;;;;;5060351;28;20429;-72
2022/05/03 05:57:46;;;;;;;20.00;17.83;;;12.30;99.90;;;;;;5054368;28;20431;-72
2022/05/03 06:00:33;;;;;;;20.67;17.33;;;12.40;99.90;;;;;;5061858;28;20422;-72
2022/05/03 06:03:20;;;;;;;15.40;13.73;;;12.50;99.90;;;;;;5055452;28;20464;-75
2022/05/03 06:06:06;;;;;;;20.03;13.87;;;12.50;99.90;;;;;;5063782;28;20397;-75
2022/05/03 06:08:52;;;;;;;15.27;13.53;;;12.40;99.90;;;;;;5073682;28;20873;-72
2022/05/03 06:11:37;;;;;;;16.17;14.57;;;12.50;99.90;;;;;;5073204;28;20401;-72
2022/05/03 06:14:23;;;;;;;20.80;16.20;;;12.60;99.90;;;;;;5064117;28;20809;-73
2022/05/03 06:17:10;;;;;;;18.37;16.43;;;12.70;99.90;;;;;;5053229;28;20809;-72
2022/05/03 06:19:56;;;;;;;20.07;15.07;;;12.70;99.90;;;;;;5071190;28;20575;-72
2022/05/03 06:22:41;;;;;;;15.10;13.70;;;12.80;99.90;;;;;;5073001;28;20974;-72
2022/05/03 06:25:27;;;;;;;15.50;13.90;;;12.90;99.90;;;;;;5064174;28;20397;-72
2022/05/03 06:28:13;;;;;;;20.07;13.20;;;12.90;99.90;;;;;;5055482;28;20399;-73
2022/05/03 06:30:58;;;;;;;16.57;14.80;;;12.90;99.90;;;;;;5060724;28;20396;-72
2022/05/03 06:33:45;;;;;;;18.30;13.10;;;13.00;99.90;;;;;;5066653;28;20835;-72
2022/05/03 06:36:31;;;;;;;15.43;13.63;;;13.10;99.90;;;;;;5061244;28;20450;-72
2022/05/03 06:39:16;;;;;;;16.73;12.60;;;13.20;99.90;;;;;;5052843;28;20426;-72
2022/05/03 06:42:05;;;;;;;23.73;13.80;;;13.30;99.90;;;;;;5052626;28;20472;-72
2022/05/03 06:44:50;;;;;;;18.23;12.43;;;13.40;99.90;;;;;;5055044;28;20890;-72
2022/05/03 06:47:36;;;;;;;15.90;12.83;;;13.40;99.90;;;;;;5056914;28;20955;-72
2022/05/03 06:50:23;;;;;;;13.03;11.57;;;13.50;99.90;;;;;;5052920;28;20418;-72
2022/05/03 06:53:09;;;;;;;13.30;11.73;;;13.50;99.90;;;;;;5057773;28;20858;-72
2022/05/03 06:55:54;;;;;;;11.77;10.27;;;13.70;99.90;;;;;;5052468;28;20488;-72
2022/05/03 06:58:40;;;;;;;14.00;12.13;;;13.70;99.90;;;;;;5060441;28;20413;-72
2022/05/03 07:01:26;;;;;;;14.10;11.73;;;13.90;99.90;;;;;;5065529;28;20475;-72
2022/05/03 07:04:12;;;;;;;13.73;12.13;;;14.00;99.90;;;;;;5055275;28;20503;-72
2022/05/03 07:06:59;;;;;;;13.67;12.27;;;14.10;99.90;;;;;;5052590;28;20395;-72
2022/05/03 07:09:46;;;;;;;13.37;11.50;;;14.20;99.90;;;;;;5052415;28;20427;-72
2022/05/03 07:12:32;;;;;;;14.70;12.20;;;14.30;99.90;;;;;;5054840;28;20423;-73
2022/05/03 07:15:19;;;;;;;13.43;11.23;;;14.40;99.90;;;;;;5051517;28;20416;-72
2022/05/03 07:24:14;;;;;;;13.43;12.03;;;14.70;99.90;;;;;;5064054;28;20997;-73
2022/05/03 07:27:00;;;;;;;12.93;11.63;;;14.80;99.90;;;;;;5053007;28;20435;-73
2022/05/03 07:29:46;;;;;;;13.07;11.27;;;14.80;99.90;;;;;;5054215;28;20446;-72
2022/05/03 07:32:31;;;;;;;12.27;10.97;;;14.90;99.90;;;;;;5057811;28;20473;-72
2022/05/03 07:35:17;;;;;;;13.73;11.97;;;15.00;99.90;;;;;;5064461;28;20419;-72
2022/05/03 07:38:02;;;;;;;11.77;10.57;;;15.10;99.90;;;;;;5051899;28;20485;-72
2022/05/03 07:40:49;;;;;;;13.40;11.30;;;15.20;99.90;;;;;;5052101;28;20394;-72
2022/05/03 07:43:36;;;;;;;15.77;12.60;;;15.30;99.90;;;;;;5053798;28;20577;-72
2022/05/03 07:46:21;;;;;;;18.90;13.13;;;15.50;99.90;;;;;;5054098;28;20439;-72
2022/05/03 07:49:09;;;;;;;12.90;11.57;;;15.70;99.90;;;;;;5071125;28;20417;-72
2022/05/03 07:51:55;;;;;;;11.93;10.67;;;15.80;99.90;;;;;;5070413;28;20797;-72
2022/05/03 07:54:41;;;;;;;15.77;12.23;;;15.90;99.90;;;;;;5050449;28;20528;-72
2022/05/03 07:57:28;;;;;;;11.60;10.40;;;16.00;99.90;;;;;;5051584;28;20520;-73
2022/05/03 08:00:15;;;;;;;12.53;10.70;;;16.10;99.90;;;;;;5060353;28;20768;-72
2022/05/03 08:03:01;;;;;;;13.07;11.63;;;16.20;99.90;;;;;;5062995;28;20505;-72
2022/05/03 08:05:46;;;;;;;14.13;10.93;;;16.30;99.90;;;;;;5064128;28;20400;-73
2022/05/03 08:08:31;;;;;;;13.70;10.13;;;16.30;99.90;;;;;;5071189;28;20471;-73
2022/05/03 08:11:18;;;;;;;13.80;10.60;;;16.30;99.90;;;;;;5071317;28;20427;-72
2022/05/03 08:14:05;;;;;;;11.40;9.73;;;16.40;99.90;;;;;;5065245;28;20454;-73
2022/05/03 08:16:51;;;;;;;15.03;11.30;;;16.50;99.90;;;;;;5062129;28;20496;-73
2022/05/03 08:19:37;;;;;;;13.00;10.47;;;16.70;99.90;;;;;;5070701;28;20573;-72
2022/05/03 08:22:24;;;;;;;12.57;10.20;;;16.80;99.90;;;;;;5065265;28;20471;-72
2022/05/03 08:25:11;;;;;;;11.00;9.80;;;16.90;99.90;;;;;;5050577;28;20875;-73
2022/05/03 08:27:57;;;;;;;13.40;11.03;;;17.10;99.90;;;;;;5053010;28;20406;-73
2022/05/03 08:30:43;;;;;;;11.80;10.57;;;17.20;99.90;;;;;;5069529;28;20462;-73
2022/05/03 08:33:29;;;;;;;12.63;9.40;;;17.40;99.90;;;;;;5063064;28;20466;-72
2022/05/03 08:36:15;;;;;;;13.20;9.90;;;17.50;99.90;;;;;;5050717;28;20410;-72
2022/05/03 08:42:07;;;;;;;8.70;7.77;;;17.70;99.90;;;;;;5053454;28;20798;-73
2022/05/03 08:44:52;;;;;;;10.10;8.93;;;17.90;99.90;;;;;;5050480;28;20451;-73
2022/05/03 08:47:41;;;;;;;10.10;8.70;;;18.00;99.90;;;;;;5068665;28;20425;-73
2022/05/03 08:50:29;;;;;;;11.33;8.37;;;18.00;99.90;;;;;;5070774;28;20423;-73
2022/05/03 08:53:16;;;;;;;9.47;8.23;;;18.10;99.90;;;;;;5062161;28;20475;-73
2022/05/03 08:56:02;;;;;;;14.53;7.67;;;18.20;99.90;;;;;;5051625;28;20488;-73
2022/05/03 08:58:48;;;;;;;11.73;7.33;;;18.40;99.90;;;;;;5053184;28;20543;-72
2022/05/03 09:01:34;;;;;;;9.33;6.57;;;18.50;99.90;;;;;;5063387;28;20498;-73
2022/05/03 09:04:22;;;;;;;8.73;7.10;;;18.60;99.90;;;;;;5064951;28;20829;-73
2022/05/03 09:07:19;;;;;;;8.63;6.93;;;18.80;99.90;;;;;;5054998;28;20486;-74
2022/05/03 09:10:17;;;;;;;8.17;6.17;;;18.80;98.00;;;;;;5073596;28;20446;-73
2022/05/03 09:13:17;;;;;;;8.10;5.50;;;18.80;93.10;;;;;;5066943;28;20469;-73
2022/05/03 09:16:10;;;;;;;6.97;6.20;;;18.90;91.00;;;;;;5062027;28;20442;-73
2022/05/03 09:18:56;;;;;;;6.57;5.20;;;18.90;88.10;;;;;;5074679;28;20765;-73
2022/05/03 09:25:02;;;;;;;10.10;8.33;;;19.10;93.10;;;;;;4974575;28;20436;-73
2022/05/03 09:27:47;;;;;;;10.87;9.23;;;19.10;95.50;;;;;;5054818;28;20418;-73
2022/05/03 09:30:33;;;;;;;6.00;5.40;;;19.20;95.40;;;;;;5071983;28;20526;-73
2022/05/03 09:33:20;;;;;;;10.40;5.27;;;19.20;92.50;;;;;;5053474;28;20439;-73
2022/05/03 09:36:09;;;;;;;5.53;4.93;;;19.20;83.30;;;;;;5053825;28;20405;-73
2022/05/03 09:38:57;;;;;;;8.10;6.00;;;19.20;75.60;;;;;;5054381;28;20405;-73
2022/05/03 09:42:04;;;;;;;5.07;4.03;;;19.30;81.20;;;;;;5056416;28;20829;-73
2022/05/03 09:44:54;;;;;;;7.67;4.90;;;19.40;78.80;;;;;;5055687;28;20478;-73
2022/05/03 09:47:51;;;;;;;5.40;4.63;;;19.60;77.80;;;;;;5053821;28;20412;-73
2022/05/03 09:50:44;;;;;;;8.80;4.90;;;19.70;73.10;;;;;;5055102;28;20407;-71
2022/05/03 09:53:32;;;;;;;7.47;5.00;;;19.70;73.90;;;;;;5053299;28;20418;-71
2022/05/03 09:56:19;;;;;;;5.43;4.13;;;19.60;69.30;;;;;;5053795;28;20435;-72
2022/05/03 09:59:08;;;;;;;4.70;3.50;;;19.70;72.90;;;;;;5064907;28;20506;-72
2022/05/03 10:01:54;;;;;;;5.13;4.40;;;19.80;67.00;;;;;;5064010;28;20541;-71
2022/05/03 10:04:40;;;;;;;9.53;4.93;;;19.80;69.20;;;;;;5068420;28;21333;-71
2022/05/03 10:07:26;;;;;;;7.03;5.00;;;19.90;71.60;;;;;;5069414;28;20460;-71
2022/05/03 10:10:14;;;;;;;7.53;5.07;;;20.00;72.40;;;;;;5068758;28;20425;-71
2022/05/03 10:13:01;;;;;;;7.43;5.30;;;20.20;73.70;;;;;;5067528;28;20466;-71
2022/05/03 10:22:06;;;;;;;5.87;4.63;;;20.00;72.10;;;;;;5063380;28;20501;-71
2022/05/03 10:24:56;;;;;;;5.10;4.60;;;19.80;69.60;;;;;;5069969;28;20510;-71
2022/05/03 10:27:55;;;;;;;5.07;4.57;;;19.80;68.10;;;;;;5070136;28;20987;-73
2022/05/03 10:31:14;;;;;;;5.40;4.90;;;19.70;69.10;;;;;;5064346;28;20491;-73
2022/05/03 10:34:02;;;;;;;5.60;5.00;;;19.50;72.70;;;;;;5059299;28;20981;-73
2022/05/03 10:36:48;;;;;;;6.67;5.37;;;19.40;70.50;;;;;;5070237;28;20770;-73
2022/05/03 10:39:35;;;;;;;6.27;5.33;;;19.30;73.40;;;;;;5072832;28;20524;-73
2022/05/03 10:42:26;;;;;;;5.20;4.70;;;19.30;73.90;;;;;;5052977;28;20406;-73
2022/05/03 10:45:12;;;;;;;9.40;5.03;;;19.20;72.60;;;;;;5063799;28;20425;-73
2022/05/03 10:48:02;;;;;;;6.07;5.00;;;19.30;74.00;;;;;;5068609;28;20438;-74
2022/05/03 10:50:51;;;;;;;6.67;5.80;;;19.40;74.10;;;;;;5061775;28;20528;-72
2022/05/03 10:53:38;;;;;;;5.90;5.27;;;19.50;74.20;;;;;;5069638;28;20516;-74
2022/05/03 10:56:24;;;;;;;6.53;5.93;;;19.50;74.20;;;;;;5068089;28;20434;-74
2022/05/03 10:59:13;;;;;;;10.23;5.80;;;19.70;72.40;;;;;;5064317;28;20961;-73
2022/05/03 11:02:10;;;;;;;6.40;5.30;;;19.70;74.60;;;;;;5058643;28;20446;-74
2022/05/03 11:05:19;;;;;;;6.83;5.13;;;19.80;72.80;;;;;;5062286;28;20442;-73
2022/05/03 11:08:18;;;;;;;7.33;5.10;;;19.80;72.60;;;;;;5063296;28;22216;-73
2022/05/03 11:13:42;;;;;;;6.00;5.40;;;19.90;70.10;;;;;;5022429;28;20853;-75
2022/05/03 11:16:34;;;;;;;9.47;5.00;;;20.00;69.20;;;;;;5017856;28;20448;-75
2022/05/03 11:19:22;;;;;;;8.17;4.53;;;20.10;71.20;;;;;;5022035;28;20396;-75
2022/05/03 11:22:12;;;;;;;13.50;5.27;;;20.20;72.00;;;;;;5022481;28;20420;-75
2022/05/03 11:24:59;;;;;;;7.13;4.80;;;20.50;71.60;;;;;;5007478;28;20568;-77
2022/05/03 11:27:45;;;;;;;7.23;6.30;;;20.90;68.90;;;;;;5006531;28;20421;-75
2022/05/03 11:30:31;;;;;;;9.57;5.10;;;21.20;63.40;;;;;;5013209;28;20475;-76
2022/05/03 11:33:17;;;;;;;4.90;4.50;;;21.40;60.00;;;;;;5012405;28;21086;-76
2022/05/03 11:36:04;;;;;;;7.30;5.33;;;21.60;57.20;;;;;;5016181;28;20445;-76
2022/05/03 11:38:52;;;;;;;6.40;4.77;;;21.70;58.20;;;;;;5012643;28;20473;-75
2022/05/03 11:41:38;;;;;;;7.87;5.43;;;21.70;55.20;;;;;;5001038;28;20523;-76
2022/05/03 11:44:24;;;;;;;7.40;5.63;;;21.80;54.30;;;;;;5012667;28;20548;-75
2022/05/03 11:47:11;;;;;;;6.83;5.33;;;21.80;54.30;;;;;;5009255;28;20441;-75
2022/05/03 11:49:58;;;;;;;5.83;5.00;;;21.50;54.20;;;;;;5009659;28;20827;-76
2022/05/03 11:56:01;;;;;;;7.67;5.43;;;21.30;55.60;;;;;;5006943;28;20853;-76
2022/05/03 11:58:47;;;;;;;5.53;4.93;;;21.10;58.60;;;;;;5005242;28;20480;-75
2022/05/03 12:01:34;;;;;;;6.80;4.97;;;21.00;57.00;;;;;;5018080;28;20460;-75
2022/05/03 12:04:20;;;;;;;6.93;6.23;;;20.90;56.30;;;;;;5002911;28;20585;-75
2022/05/03 12:07:06;;;;;;;9.87;5.50;;;20.90;55.50;;;;;;5009766;28;20835;-75
2022/05/03 12:09:52;;;;;;;7.20;6.00;;;20.80;56.50;;;;;;5011419;28;20470;-75
2022/05/03 12:12:45;;;;;;;6.07;5.43;;;20.70;57.20;;;;;;5017887;28;21010;-75
2022/05/03 12:15:31;;;;;;;8.90;6.57;;;20.60;54.90;;;;;;5024409;28;20420;-75
2022/05/03 12:18:18;;;;;;;9.23;5.80;;;20.50;56.60;;;;;;5012045;28;20516;-75
2022/05/03 12:21:07;;;;;;;8.00;6.03;;;20.50;57.80;;;;;;5009381;28;20444;-75
2022/05/03 12:23:59;;;;;;;8.37;5.83;;;20.50;57.70;;;;;;5009005;28;20869;-74
2022/05/03 12:26:45;;;;;;;9.60;5.83;;;20.60;58.70;;;;;;5001791;28;20494;-74
2022/05/03 12:29:33;;;;;;;7.63;6.20;;;20.50;62.30;;;;;;5003848;28;20600;-74
2022/05/03 12:32:20;;;;;;;8.87;5.53;;;20.50;60.60;;;;;;5008774;28;20605;-75
2022/05/03 12:35:06;;;;;;;16.03;5.60;;;20.50;61.10;;;;;;5007574;28;20433;-75
2022/05/03 12:37:52;;;;;;;6.33;5.20;;;20.50;58.70;;;;;;5010802;28;20465;-75
2022/05/03 12:40:48;;;;;;;6.47;5.43;;;20.40;57.70;;;;;;5012099;28;20954;-75
2022/05/03 12:43:34;;;;;;;6.07;5.47;;;20.40;55.50;;;;;;5005004;28;20843;-75
2022/05/03 12:46:27;;;;;;;7.20;5.90;;;20.40;56.90;;;;;;5002186;28;20512;-75
2022/05/03 12:49:14;;;;;;;7.40;5.33;;;20.40;56.10;;;;;;5009385;28;20431;-75
2022/05/03 12:52:01;;;;;;;6.60;5.70;;;20.30;57.30;;;;;;5004613;28;20482;-75
2022/05/03 12:54:48;;;;;;;7.33;6.17;;;20.30;56.30;;;;;;5012363;28;20452;-73
2022/05/03 13:00:38;;;;;;;8.70;6.13;;;20.30;57.20;;;;;;5004172;28;20460;-72
2022/05/03 13:03:25;;;;;;;7.30;5.93;;;20.30;57.20;;;;;;5006109;28;20524;-72
2022/05/03 13:06:11;;;;;;;6.67;5.70;;;20.30;60.10;;;;;;5001609;28;20453;-72
2022/05/03 13:08:57;;;;;;;11.47;6.60;;;20.40;58.00;;;;;;5004727;28;20423;-72
2022/05/03 13:11:44;;;;;;;8.93;6.33;;;20.40;55.10;;;;;;5005904;28;20984;-72
2022/05/03 13:14:31;;;;;;;8.73;6.90;;;20.40;56.70;;;;;;5003785;28;20453;-72
2022/05/03 13:17:17;;;;;;;9.87;5.23;;;20.50;57.90;;;;;;5003830;28;20432;-72
2022/05/03 13:20:05;;;;;;;9.20;6.80;;;20.50;60.10;;;;;;5003502;28;20440;-72
2022/05/03 13:22:51;;;;;;;11.37;6.50;;;20.50;60.10;;;;;;5006704;28;20851;-72
2022/05/03 13:25:37;;;;;;;8.13;5.97;;;20.50;62.60;;;;;;5011423;28;20459;-73
2022/05/03 13:28:22;;;;;;;8.43;4.90;;;20.40;61.50;;;;;;5003705;28;20449;-74
2022/05/03 13:31:08;;;;;;;5.63;4.80;;;20.30;61.50;;;;;;5005919;28;20930;-75
2022/05/03 13:33:54;;;;;;;9.60;6.53;;;20.30;60.80;;;;;;5005532;28;20488;-75
2022/05/03 13:42:53;;;;;;;7.67;4.90;;;20.20;61.60;;;;;;5008683;28;20456;-75
2022/05/03 13:45:39;;;;;;;6.10;5.33;;;20.10;61.60;;;;;;5003618;28;20787;-75
2022/05/03 13:48:24;;;;;;;5.67;4.90;;;20.10;64.30;;;;;;5003880;28;20585;-75
2022/05/03 13:51:10;;;;;;;7.73;5.27;;;20.00;63.00;;;;;;5008837;28;20500;-75
2022/05/03 13:53:57;;;;;;;4.40;3.70;;;20.00;62.00;;;;;;5011582;28;20441;-76
2022/05/03 13:56:42;;;;;;;5.80;5.20;;;19.90;59.30;;;;;;5008315;28;20780;-75
2022/05/03 13:59:28;;;;;;;6.63;4.80;;;19.90;60.80;;;;;;5010737;28;20476;-75
2022/05/03 14:02:14;;;;;;;9.60;5.60;;;19.90;60.90;;;;;;5009051;28;20536;-75
2022/05/03 14:04:59;;;;;;;5.87;4.30;;;19.80;61.50;;;;;;5006660;28;21253;-75
2022/05/03 14:07:44;;;;;;;5.10;4.23;;;19.70;59.90;;;;;;5007179;28;20959;-75
2022/05/03 14:10:32;;;;;;;6.20;5.00;;;19.70;62.20;;;;;;5009523;28;20424;-75
2022/05/03 14:13:18;;;;;;;5.63;4.20;;;19.70;63.60;;;;;;5005806;28;20556;-74
2022/05/03 14:16:05;;;;;;;9.37;4.43;;;19.60;67.60;;;;;;5007590;28;20450;-75
2022/05/03 14:18:51;;;;;;;7.37;4.83;;;19.60;69.80;;;;;;5006067;28;20520;-75
2022/05/03 14:21:37;;;;;;;9.40;4.53;;;19.60;69.80;;;;;;5005710;28;21480;-75
2022/05/03 14:24:23;;;;;;;7.07;4.73;;;19.60;71.50;;;;;;5006287;28;20584;-75
2022/05/03 14:27:11;;;;;;;9.13;5.73;;;19.60;69.40;;;;;;5005753;28;20465;-75
2022/05/03 14:29:56;;;;;;;5.80;4.97;;;19.70;70.70;;;;;;5011422;28;20457;-75
2022/05/03 14:32:42;;;;;;;5.73;4.50;;;19.80;73.80;;;;;;5006954;28;20465;-75
2022/05/03 14:35:28;;;;;;;5.57;4.80;;;19.80;77.10;;;;;;5005753;28;20521;-75
2022/05/03 14:38:14;;;;;;;7.10;5.37;;;19.80;74.30;;;;;;5005921;28;20476;-75
2022/05/03 14:41:00;;;;;;;15.57;5.50;;;19.80;72.20;;;;;;5006144;28;21205;-75
2022/05/03 14:43:47;;;;;;;6.80;5.93;;;19.80;72.10;;;;;;5006183;28;20472;-75
2022/05/03 14:46:33;;;;;;;10.17;7.43;;;19.80;72.50;;;;;;5006818;28;20448;-74
2022/05/03 14:49:18;;;;;;;8.50;6.33;;;19.90;84.90;;;;;;5008699;28;20445;-75
2022/05/03 14:52:09;;;;;;;10.20;7.37;;;19.90;87.70;;;;;;5009089;28;20957;-75
2022/05/03 14:54:54;;;;;;;10.30;7.00;;;19.80;90.10;;;;;;5010030;28;20819;-75
2022/05/03 15:03:48;;;;;;;8.73;7.37;;;19.70;93.10;;;;;;5005690;28;20866;-76
2022/05/03 15:06:34;;;;;;;7.97;6.80;;;19.70;93.30;;;;;;5002956;28;20493;-75
2022/05/03 15:09:20;;;;;;;10.30;7.93;;;19.70;92.30;;;;;;5007028;28;20416;-75
2022/05/03 15:12:07;;;;;;;11.00;7.80;;;19.60;91.50;;;;;;5002998;28;20473;-75
2022/05/03 15:14:52;;;;;;;9.37;8.00;;;19.60;91.60;;;;;;5008159;28;20584;-75